Wetterdaten: Woche 07.10.13 - 13.10.13 (KW41)
Datum Zeit Temperatur Luftfeuchte Luftdruck Niederschlag Windrichtung Sonnenschein Solar Wind
07.10.2013 00:00 9,9 C 96 % 1023,6 hPa 0,0 l/m N 0,00 h 0 W/m 4,1 km/h (1 Bft)
07.10.2013 01:00 10,0 C 97 % 1023,5 hPa 0,0 l/m N 0,00 h 0 W/m 5,5 km/h (1 Bft)
07.10.2013 02:00 10,1 C 97 % 1023,4 hPa 0,0 l/m N 0,00 h 0 W/m 4,1 km/h (1 Bft)
07.10.2013 03:00 10,2 C 97 % 1022,9 hPa 0,0 l/m N 0,00 h 0 W/m 4,9 km/h (1 Bft)
07.10.2013 04:00 10,3 C 98 % 1022,8 hPa 0,0 l/m N 0,00 h 0 W/m 5,9 km/h (2 Bft)
07.10.2013 05:00 10,4 C 98 % 1022,8 hPa 0,0 l/m N 0,00 h 0 W/m 6,8 km/h (2 Bft)
07.10.2013 06:00 10,5 C 98 % 1022,9 hPa 0,0 l/m N 0,00 h 0 W/m 8,4 km/h (2 Bft)
07.10.2013 07:00 10,5 C 99 % 1023,1 hPa 0,0 l/m NO 0,00 h 8 W/m 7,6 km/h (2 Bft)
07.10.2013 08:00 10,4 C 99 % 1023,2 hPa 0,0 l/m NO 0,00 h 18 W/m 8,6 km/h (2 Bft)
07.10.2013 09:00 10,1 C 98 % 1023,6 hPa 0,0 l/m O-NO 0,00 h 47 W/m 13,2 km/h (3 Bft)
07.10.2013 10:00 10,3 C 96 % 1023,7 hPa 0,0 l/m NO 0,00 h 92 W/m 10,9 km/h (2 Bft)
07.10.2013 11:00 11,3 C 91 % 1023,6 hPa 0,0 l/m NO 0,00 h 155 W/m 13,6 km/h (3 Bft)
07.10.2013 12:00 11,7 C 86 % 1023,4 hPa 0,0 l/m NO 0,00 h 178 W/m 14,1 km/h (3 Bft)
07.10.2013 13:00 11,6 C 88 % 1023,1 hPa 0,0 l/m O-NO 0,00 h 101 W/m 14,4 km/h (3 Bft)
07.10.2013 14:00 11,4 C 89 % 1022,9 hPa 0,0 l/m O-NO 0,00 h 82 W/m 13,8 km/h (3 Bft)
07.10.2013 15:00 11,4 C 90 % 1022,9 hPa 0,0 l/m NO 0,00 h 57 W/m 13,2 km/h (3 Bft)
07.10.2013 16:00 10,9 C 92 % 1022,8 hPa 0,0 l/m NO 0,00 h 29 W/m 12,1 km/h (2 Bft)
07.10.2013 17:00 10,4 C 95 % 1022,8 hPa 0,0 l/m N-NO 0,00 h 20 W/m 9,9 km/h (2 Bft)
07.10.2013 18:00 10,4 C 96 % 1022,9 hPa 0,0 l/m N-NO 0,00 h 6 W/m 7,6 km/h (2 Bft)
07.10.2013 19:00 10,4 C 97 % 1023,0 hPa 0,0 l/m N-NO 0,00 h 0 W/m 6,4 km/h (2 Bft)
07.10.2013 20:00 10,4 C 97 % 1022,9 hPa 0,0 l/m N-NO 0,00 h 0 W/m 4,8 km/h (1 Bft)
07.10.2013 21:00 10,6 C 97 % 1022,8 hPa 0,2 l/m N-NO 0,00 h 0 W/m 3,6 km/h (1 Bft)
07.10.2013 22:00 10,7 C 97 % 1022,7 hPa 0,0 l/m N-NO 0,00 h 0 W/m 4,4 km/h (1 Bft)
07.10.2013 23:00 10,7 C 98 % 1022,5 hPa 0,0 l/m N-NO 0,00 h 0 W/m 3,9 km/h (1 Bft)
08.10.2013 00:00 10,9 C 98 % 1022,4 hPa 0,0 l/m N-NO 0,00 h 0 W/m 4,0 km/h (1 Bft)
08.10.2013 01:00 11,0 C 98 % 1022,4 hPa 0,0 l/m N-NO 0,00 h 0 W/m 5,5 km/h (1 Bft)
08.10.2013 02:00 11,0 C 98 % 1022,3 hPa 0,0 l/m N-NO 0,00 h 0 W/m 5,9 km/h (2 Bft)
08.10.2013 03:00 11,0 C 98 % 1022,1 hPa 0,0 l/m N-NO 0,00 h 0 W/m 5,2 km/h (1 Bft)
08.10.2013 04:00 10,9 C 98 % 1022,0 hPa 0,0 l/m N-NO 0,00 h 0 W/m 4,3 km/h (1 Bft)
08.10.2013 05:00 10,8 C 98 % 1022,0 hPa 0,0 l/m N-NO 0,00 h 0 W/m 3,2 km/h (1 Bft)
08.10.2013 06:00 10,6 C 98 % 1021,9 hPa 0,0 l/m N-NO 0,00 h 0 W/m 6,3 km/h (2 Bft)
08.10.2013 07:00 10,4 C 97 % 1022,0 hPa 0,0 l/m N-NO 0,00 h 0 W/m 5,9 km/h (2 Bft)
08.10.2013 08:00 10,2 C 98 % 1022,2 hPa 0,0 l/m N-NO 0,00 h 15 W/m 4,9 km/h (1 Bft)
08.10.2013 09:00 10,4 C 98 % 1022,6 hPa 0,0 l/m N-NO 0,00 h 32 W/m 5,6 km/h (1 Bft)
08.10.2013 10:00 10,7 C 98 % 1022,8 hPa 0,0 l/m N-NO 0,00 h 58 W/m 5,7 km/h (1 Bft)
08.10.2013 11:00 11,3 C 96 % 1022,9 hPa 0,0 l/m N-NO 0,00 h 83 W/m 5,6 km/h (1 Bft)
08.10.2013 12:00 12,0 C 93 % 1022,8 hPa 0,0 l/m N-NO 0,00 h 101 W/m 4,9 km/h (1 Bft)
08.10.2013 13:00 12,7 C 90 % 1022,4 hPa 0,0 l/m N-NO 0,00 h 121 W/m 5,1 km/h (1 Bft)
08.10.2013 14:00 13,1 C 88 % 1021,9 hPa 0,0 l/m N-NO 0,00 h 125 W/m 5,5 km/h (1 Bft)
08.10.2013 15:00 13,4 C 87 % 1021,9 hPa 0,0 l/m N-NO 0,00 h 87 W/m 6,1 km/h (2 Bft)
08.10.2013 16:00 13,4 C 87 % 1022,1 hPa 0,0 l/m N-NO 0,00 h 40 W/m 3,7 km/h (1 Bft)
08.10.2013 17:00 13,2 C 87 % 1022,0 hPa 0,0 l/m N 0,00 h 23 W/m 2,4 km/h (1 Bft)
08.10.2013 18:00 13,1 C 89 % 1022,3 hPa 0,0 l/m N 0,00 h 7 W/m 0,9 km/h (0 Bft)
08.10.2013 19:00 12,6 C 91 % 1022,8 hPa 0,2 l/m N-NO 0,00 h 0 W/m 1,3 km/h (1 Bft)
08.10.2013 20:00 12,1 C 92 % 1023,0 hPa 0,0 l/m N-NO 0,00 h 0 W/m 4,5 km/h (1 Bft)
08.10.2013 21:00 11,8 C 93 % 1023,0 hPa 0,0 l/m N-NO 0,00 h 0 W/m 3,6 km/h (1 Bft)
08.10.2013 22:00 11,6 C 94 % 1023,1 hPa 0,0 l/m N-NO 0,00 h 0 W/m 4,3 km/h (1 Bft)
08.10.2013 23:00 11,3 C 95 % 1022,9 hPa 0,0 l/m N 0,00 h 0 W/m 0,5 km/h (0 Bft)
09.10.2013 00:00 11,0 C 95 % 1022,6 hPa 0,0 l/m N 0,00 h 0 W/m 0,9 km/h (0 Bft)
09.10.2013 01:00 10,8 C 95 % 1022,5 hPa 0,0 l/m N 0,00 h 0 W/m 2,4 km/h (1 Bft)
09.10.2013 02:00 10,8 C 96 % 1022,4 hPa 0,0 l/m N 0,00 h 0 W/m 0,8 km/h (0 Bft)
09.10.2013 03:00 10,7 C 96 % 1022,3 hPa 0,0 l/m N 0,00 h 0 W/m 0,1 km/h (0 Bft)
09.10.2013 04:00 10,7 C 96 % 1021,9 hPa 0,0 l/m N 0,00 h 0 W/m 0,0 km/h (0 Bft)
09.10.2013 05:00 10,6 C 96 % 1021,4 hPa 0,0 l/m N 0,00 h 0 W/m 0,0 km/h (0 Bft)
09.10.2013 06:00 10,4 C 96 % 1021,1 hPa 0,0 l/m N 0,00 h 0 W/m 0,5 km/h (0 Bft)
09.10.2013 07:00 10,4 C 96 % 1020,7 hPa 0,0 l/m N 0,00 h 5 W/m 0,8 km/h (0 Bft)
09.10.2013 08:00 10,4 C 97 % 1020,7 hPa 0,0 l/m N 0,00 h 14 W/m 0,0 km/h (0 Bft)
09.10.2013 09:00 10,6 C 97 % 1020,8 hPa 0,0 l/m N 0,00 h 30 W/m 1,7 km/h (1 Bft)
09.10.2013 10:00 11,0 C 97 % 1020,9 hPa 0,0 l/m N-NO 0,00 h 69 W/m 2,9 km/h (1 Bft)
09.10.2013 11:00 11,5 C 94 % 1020,5 hPa 0,0 l/m N-NO 0,00 h 90 W/m 2,3 km/h (1 Bft)
09.10.2013 12:00 11,9 C 92 % 1019,8 hPa 0,0 l/m N 0,00 h 72 W/m 1,2 km/h (1 Bft)
09.10.2013 13:00 12,1 C 91 % 1019,0 hPa 0,0 l/m N-NO 0,00 h 89 W/m 3,1 km/h (1 Bft)
09.10.2013 14:00 12,6 C 89 % 1018,2 hPa 0,0 l/m N-NO 0,00 h 117 W/m 5,1 km/h (1 Bft)
09.10.2013 15:00 12,8 C 88 % 1017,5 hPa 0,0 l/m N-NW 0,00 h 75 W/m 5,9 km/h (2 Bft)
09.10.2013 16:00 12,8 C 88 % 1016,8 hPa 0,0 l/m NW 0,00 h 67 W/m 5,3 km/h (1 Bft)
09.10.2013 17:00 12,7 C 91 % 1016,1 hPa 0,0 l/m W 0,00 h 35 W/m 6,3 km/h (2 Bft)
09.10.2013 18:00 12,5 C 92 % 1015,5 hPa 0,0 l/m W 0,00 h 7 W/m 4,3 km/h (1 Bft)
09.10.2013 19:00 12,1 C 93 % 1015,3 hPa 0,0 l/m W 0,00 h 0 W/m 3,6 km/h (1 Bft)
09.10.2013 20:00 11,7 C 94 % 1015,3 hPa 0,0 l/m W 0,00 h 0 W/m 5,5 km/h (1 Bft)
09.10.2013 21:00 11,4 C 94 % 1015,0 hPa 0,0 l/m W 0,00 h 0 W/m 6,5 km/h (2 Bft)
09.10.2013 22:00 11,1 C 93 % 1014,5 hPa 0,0 l/m W 0,00 h 0 W/m 8,3 km/h (2 Bft)
09.10.2013 23:00 10,4 C 93 % 1013,8 hPa 0,0 l/m W-SW 0,00 h 0 W/m 10,1 km/h (2 Bft)
10.10.2013 00:00 10,2 C 95 % 1012,9 hPa 0,0 l/m SW 0,00 h 0 W/m 16,0 km/h (3 Bft)
10.10.2013 01:00 10,0 C 94 % 1012,2 hPa 0,0 l/m SW 0,00 h 0 W/m 13,3 km/h (3 Bft)
10.10.2013 02:00 9,6 C 93 % 1011,3 hPa 0,0 l/m SW 0,00 h 0 W/m 9,4 km/h (2 Bft)
10.10.2013 03:00 9,1 C 94 % 1010,3 hPa 0,0 l/m SW 0,00 h 0 W/m 10,1 km/h (2 Bft)
10.10.2013 04:00 9,3 C 94 % 1009,2 hPa 0,0 l/m SW 0,00 h 0 W/m 10,9 km/h (2 Bft)
10.10.2013 05:00 9,3 C 94 % 1008,3 hPa 0,0 l/m SW 0,00 h 0 W/m 13,4 km/h (3 Bft)
10.10.2013 06:00 9,8 C 92 % 1007,3 hPa 0,0 l/m SW 0,00 h 0 W/m 12,9 km/h (3 Bft)
10.10.2013 07:00 9,6 C 93 % 1006,3 hPa 0,0 l/m SW 0,00 h 0 W/m 11,6 km/h (2 Bft)
10.10.2013 08:00 9,6 C 94 % 1005,6 hPa 0,0 l/m SW 0,00 h 17 W/m 12,5 km/h (3 Bft)
10.10.2013 09:00 9,8 C 95 % 1005,3 hPa 0,0 l/m W-SW 0,00 h 38 W/m 11,8 km/h (2 Bft)
10.10.2013 10:00 10,1 C 95 % 1005,2 hPa 1,6 l/m W-SW 0,00 h 26 W/m 12,2 km/h (2 Bft)
10.10.2013 11:00 8,0 C 92 % 1006,3 hPa 4,2 l/m N 0,00 h 50 W/m 22,1 km/h (4 Bft)
10.10.2013 12:00 5,2 C 94 % 1007,0 hPa 1,2 l/m N-NW 0,00 h 44 W/m 23,3 km/h (4 Bft)
10.10.2013 13:00 4,6 C 95 % 1007,7 hPa 0,8 l/m N-NW 0,00 h 33 W/m 11,3 km/h (2 Bft)
10.10.2013 14:00 4,4 C 95 % 1008,2 hPa 0,8 l/m SW 0,00 h 33 W/m 9,9 km/h (2 Bft)
10.10.2013 15:00 4,2 C 95 % 1009,1 hPa 0,8 l/m SW 0,00 h 32 W/m 17,2 km/h (3 Bft)
10.10.2013 16:00 3,9 C 96 % 1009,7 hPa 0,6 l/m SW 0,00 h 24 W/m 16,2 km/h (3 Bft)
10.10.2013 17:00 3,7 C 96 % 1010,3 hPa 0,0 l/m W-SW 0,00 h 12 W/m 20,2 km/h (4 Bft)
10.10.2013 18:00 3,6 C 96 % 1010,7 hPa 0,0 l/m W-SW 0,00 h 7 W/m 14,2 km/h (3 Bft)
10.10.2013 19:00 3,8 C 97 % 1011,1 hPa 0,0 l/m SW 0,00 h 0 W/m 13,7 km/h (3 Bft)
10.10.2013 20:00 3,9 C 97 % 1011,2 hPa 0,0 l/m SW 0,00 h 0 W/m 12,6 km/h (3 Bft)
10.10.2013 21:00 4,0 C 97 % 1011,0 hPa 0,0 l/m S-SW 0,00 h 0 W/m 12,6 km/h (3 Bft)
10.10.2013 22:00 3,9 C 97 % 1011,1 hPa 0,2 l/m SW 0,00 h 0 W/m 15,2 km/h (3 Bft)
10.10.2013 23:00 3,7 C 97 % 1011,0 hPa 0,2 l/m SW 0,00 h 0 W/m 13,8 km/h (3 Bft)
11.10.2013 00:00 3,5 C 97 % 1010,7 hPa 0,2 l/m SW 0,00 h 0 W/m 10,6 km/h (2 Bft)
11.10.2013 01:00 3,4 C 97 % 1010,0 hPa 0,0 l/m SW 0,00 h 0 W/m 14,9 km/h (3 Bft)
11.10.2013 02:00 3,1 C 97 % 1010,6 hPa 0,4 l/m S-SW 0,00 h 0 W/m 10,7 km/h (2 Bft)
11.10.2013 03:00 2,7 C 97 % 1010,4 hPa 0,6 l/m S-SW 0,00 h 0 W/m 6,7 km/h (2 Bft)
11.10.2013 04:00 2,3 C 97 % 1010,1 hPa 0,2 l/m SW 0,00 h 0 W/m 3,7 km/h (1 Bft)
11.10.2013 05:00 2,1 C 97 % 1010,5 hPa 0,6 l/m SW 0,00 h 0 W/m 2,9 km/h (1 Bft)
11.10.2013 06:00 1,8 C 97 % 1010,6 hPa 0,8 l/m N 0,00 h 0 W/m 1,6 km/h (1 Bft)
11.10.2013 07:00 1,7 C 97 % 1011,1 hPa 0,2 l/m N 0,00 h 8 W/m 0,9 km/h (0 Bft)
11.10.2013 08:00 2,0 C 97 % 1011,6 hPa 0,0 l/m N 0,00 h 31 W/m 1,7 km/h (1 Bft)
11.10.2013 09:00 2,6 C 97 % 1012,3 hPa 0,0 l/m N 0,08 h 108 W/m 1,3 km/h (1 Bft)
11.10.2013 10:00 3,8 C 97 % 1012,9 hPa 0,0 l/m SW 0,00 h 128 W/m 2,5 km/h (1 Bft)
11.10.2013 11:00 4,3 C 95 % 1013,5 hPa 0,0 l/m S-SW 0,00 h 85 W/m 5,5 km/h (1 Bft)
11.10.2013 12:00 4,8 C 95 % 1013,9 hPa 0,0 l/m S-SW 0,00 h 104 W/m 8,4 km/h (2 Bft)
11.10.2013 13:00 5,4 C 93 % 1013,8 hPa 0,0 l/m S-SW 0,25 h 218 W/m 7,5 km/h (2 Bft)
11.10.2013 14:00 6,6 C 87 % 1013,5 hPa 0,0 l/m S-SW 0,08 h 209 W/m 8,4 km/h (2 Bft)
11.10.2013 15:00 7,1 C 85 % 1013,6 hPa 0,0 l/m SW 0,17 h 188 W/m 8,4 km/h (2 Bft)
11.10.2013 16:00 7,7 C 82 % 1013,7 hPa 0,0 l/m S-SW 0,42 h 204 W/m 6,0 km/h (2 Bft)
11.10.2013 17:00 7,2 C 82 % 1014,0 hPa 0,0 l/m S-SW 0,50 h 125 W/m 4,5 km/h (1 Bft)
11.10.2013 18:00 5,3 C 92 % 1014,3 hPa 0,0 l/m N 0,08 h 13 W/m 0,8 km/h (0 Bft)
11.10.2013 19:00 3,8 C 96 % 1014,9 hPa 0,0 l/m N 0,00 h 0 W/m 0,1 km/h (0 Bft)
11.10.2013 20:00 3,1 C 96 % 1015,4 hPa 0,0 l/m N 0,00 h 0 W/m 0,3 km/h (0 Bft)
11.10.2013 21:00 2,6 C 96 % 1015,6 hPa 0,0 l/m N 0,00 h 0 W/m 0,0 km/h (0 Bft)
11.10.2013 22:00 2,0 C 96 % 1015,3 hPa 0,0 l/m N 0,00 h 0 W/m 0,0 km/h (0 Bft)
11.10.2013 23:00 1,6 C 96 % 1015,5 hPa 0,0 l/m W-NW 0,00 h 0 W/m 1,7 km/h (1 Bft)
12.10.2013 00:00 1,7 C 96 % 1015,4 hPa 0,0 l/m NW 0,00 h 0 W/m 5,2 km/h (1 Bft)
12.10.2013 01:00 1,5 C 96 % 1015,4 hPa 0,0 l/m N 0,00 h 0 W/m 7,1 km/h (2 Bft)
12.10.2013 02:00 1,5 C 97 % 1015,4 hPa 0,2 l/m N-NO 0,00 h 0 W/m 12,9 km/h (3 Bft)
12.10.2013 03:00 1,8 C 98 % 1015,0 hPa 0,0 l/m NO 0,00 h 0 W/m 12,6 km/h (3 Bft)
12.10.2013 04:00 1,9 C 98 % 1014,7 hPa 0,0 l/m N-NO 0,00 h 0 W/m 10,6 km/h (2 Bft)
12.10.2013 05:00 1,9 C 98 % 1014,3 hPa 0,0 l/m NO 0,00 h 0 W/m 12,8 km/h (3 Bft)
12.10.2013 06:00 2,2 C 98 % 1013,9 hPa 0,0 l/m O-NO 0,00 h 0 W/m 6,7 km/h (2 Bft)
12.10.2013 07:00 2,3 C 98 % 1014,4 hPa 0,0 l/m NO 0,00 h 0 W/m 3,9 km/h (1 Bft)
12.10.2013 08:00 2,5 C 98 % 1015,3 hPa 0,0 l/m NO 0,00 h 11 W/m 2,5 km/h (1 Bft)
12.10.2013 09:00 2,7 C 98 % 1016,2 hPa 0,0 l/m N 0,00 h 20 W/m 1,3 km/h (1 Bft)
12.10.2013 10:00 3,1 C 98 % 1016,5 hPa 0,0 l/m NO 0,00 h 54 W/m 2,1 km/h (1 Bft)
12.10.2013 11:00 3,9 C 96 % 1016,3 hPa 0,0 l/m NO 0,00 h 89 W/m 4,7 km/h (1 Bft)
12.10.2013 12:00 4,8 C 93 % 1016,8 hPa 0,0 l/m SW 0,00 h 109 W/m 7,8 km/h (2 Bft)
12.10.2013 13:00 5,7 C 92 % 1017,0 hPa 0,0 l/m S-SW 0,00 h 132 W/m 8,8 km/h (2 Bft)
12.10.2013 14:00 6,4 C 90 % 1016,7 hPa 0,0 l/m S-SW 0,08 h 170 W/m 11,4 km/h (2 Bft)
12.10.2013 15:00 8,2 C 80 % 1016,2 hPa 0,0 l/m SW 0,83 h 464 W/m 15,6 km/h (3 Bft)
12.10.2013 16:00 8,3 C 78 % 1016,0 hPa 0,0 l/m SW 0,42 h 189 W/m 10,6 km/h (2 Bft)
12.10.2013 17:00 7,5 C 83 % 1015,7 hPa 0,0 l/m SW 0,17 h 67 W/m 7,1 km/h (2 Bft)
12.10.2013 18:00 5,7 C 92 % 1015,8 hPa 0,0 l/m N 0,00 h 16 W/m 0,1 km/h (0 Bft)
12.10.2013 19:00 4,7 C 96 % 1016,3 hPa 0,0 l/m N 0,00 h 0 W/m 0,0 km/h (0 Bft)
12.10.2013 20:00 4,4 C 97 % 1016,3 hPa 0,0 l/m N 0,00 h 0 W/m 0,0 km/h (0 Bft)
12.10.2013 21:00 4,3 C 97 % 1016,3 hPa 0,0 l/m N 0,00 h 0 W/m 0,0 km/h (0 Bft)
12.10.2013 22:00 4,5 C 97 % 1016,4 hPa 0,0 l/m N 0,00 h 0 W/m 0,0 km/h (0 Bft)
12.10.2013 23:00 4,7 C 98 % 1016,9 hPa 0,0 l/m N 0,00 h 0 W/m 0,7 km/h (0 Bft)
13.10.2013 00:00 4,9 C 98 % 1017,3 hPa 0,2 l/m SW 0,00 h 0 W/m 1,6 km/h (1 Bft)
13.10.2013 01:00 5,0 C 98 % 1017,7 hPa 0,8 l/m SW 0,00 h 0 W/m 3,2 km/h (1 Bft)
13.10.2013 02:00 5,1 C 98 % 1018,0 hPa 1,4 l/m N 0,00 h 0 W/m 2,9 km/h (1 Bft)
13.10.2013 03:00 5,0 C 98 % 1018,3 hPa 0,4 l/m N 0,00 h 0 W/m 1,5 km/h (1 Bft)
13.10.2013 04:00 4,7 C 98 % 1018,6 hPa 0,0 l/m SW 0,00 h 0 W/m 3,3 km/h (1 Bft)
13.10.2013 05:00 5,0 C 98 % 1019,2 hPa 0,0 l/m SW 0,00 h 0 W/m 8,2 km/h (2 Bft)
13.10.2013 06:00 4,8 C 98 % 1019,6 hPa 0,0 l/m SW 0,00 h 0 W/m 8,6 km/h (2 Bft)
13.10.2013 07:00 4,2 C 98 % 1019,8 hPa 0,0 l/m SW 0,00 h 8 W/m 8,4 km/h (2 Bft)
13.10.2013 08:00 4,0 C 98 % 1020,4 hPa 0,0 l/m SW 0,00 h 40 W/m 8,4 km/h (2 Bft)
13.10.2013 09:00 4,8 C 98 % 1020,8 hPa 0,0 l/m SW 0,42 h 143 W/m 9,4 km/h (2 Bft)
13.10.2013 10:00 6,0 C 99 % 1020,7 hPa 0,0 l/m SW 1,00 h 379 W/m 11,1 km/h (2 Bft)
13.10.2013 11:00 8,3 C 90 % 1020,3 hPa 0,0 l/m SW 0,50 h 335 W/m 17,4 km/h (3 Bft)
13.10.2013 12:00 9,6 C 85 % 1019,8 hPa 0,0 l/m SW 0,50 h 420 W/m 17,6 km/h (3 Bft)
13.10.2013 13:00 11,2 C 79 % 1019,4 hPa 0,0 l/m SW 0,67 h 464 W/m 14,8 km/h (3 Bft)
13.10.2013 14:00 12,4 C 74 % 1018,8 hPa 0,0 l/m SW 1,00 h 552 W/m 11,6 km/h (2 Bft)
13.10.2013 15:00 13,0 C 70 % 1018,5 hPa 0,0 l/m SW 1,00 h 431 W/m 10,1 km/h (2 Bft)
13.10.2013 16:00 13,0 C 70 % 1018,5 hPa 0,0 l/m SO 0,92 h 316 W/m 8,0 km/h (2 Bft)
13.10.2013 17:00 12,1 C 73 % 1018,5 hPa 0,0 l/m S 0,83 h 149 W/m 5,1 km/h (1 Bft)
13.10.2013 18:00 9,3 C 88 % 1018,5 hPa 0,0 l/m N 0,00 h 10 W/m 0,9 km/h (0 Bft)
13.10.2013 19:00 7,3 C 94 % 1018,6 hPa 0,0 l/m N 0,00 h 0 W/m 0,7 km/h (0 Bft)
13.10.2013 20:00 7,1 C 96 % 1019,0 hPa 0,0 l/m N 0,00 h 0 W/m 1,1 km/h (0 Bft)
13.10.2013 21:00 6,9 C 96 % 1019,3 hPa 0,0 l/m N 0,00 h 0 W/m 0,9 km/h (0 Bft)
13.10.2013 22:00 5,9 C 97 % 1019,2 hPa 0,0 l/m N 0,00 h 0 W/m 0,0 km/h (0 Bft)
13.10.2013 23:00 5,3 C 97 % 1019,2 hPa 0,0 l/m N 0,00 h 0 W/m 0,0 km/h (0 Bft)
Min-Datum _ 12.10.13 13.10.13 10.10.13 - - - - 07.10.13
_ Min-Zeit 01:50 15:55 10:40 - - - - 23:45
Minimum _ 1,3 C 68 % 1005,0 hPa - - - - 0,0 km/h (0 Bft)
Max-Datum _ 08.10.13 07.10.13 07.10.13 10.10.13 - 11.10.13 13.10.13 10.10.13
_ Max-Zeit 15:35 01:35 09:45 11:05 - 09:50 12:30 12:20
Maximum _ 13,5 C 100 % 1023,8 hPa 4,2 l/m - 0,08 h 729 W/m 33,8 km/h
N-NW (5 Bft)
Durchschnitt _ 7,9 C 94 % 1017,3 hPa #16,8 l/m SW #9:55 h 104 W/m 6,7 km/h (2 Bft)